Time;durP1;ratioP1;P1;durP2;ratioP2;P2;SDS_P1;SDS_P2;PMS_P1;PMS_P2;Temp;Humidity;BMP_temperature;BMP_pressure;BME280_temperature;BME280_humidity;BME280_pressure;Samples;Min_cycle;Max_cycle;Signal;HPM_P1;HPM_P2
2021/07/28 00:01:48;;;;;;;4.45;3.95;;;;;;;23.07;56.58;100962.53;5017975;28;20434;-87
2021/07/28 00:04:13;;;;;;;5.50;3.60;;;;;;;23.07;56.78;100964.31;5001617;28;20113;-88
2021/07/28 00:06:38;;;;;;;3.65;3.22;;;;;;;23.08;56.44;100963.38;5018320;28;20033;-87
2021/07/28 00:09:04;;;;;;;4.15;3.70;;;;;;;23.06;56.99;100959.94;5017896;28;20387;-88
2021/07/28 00:11:30;;;;;;;4.50;3.78;;;;;;;23.07;56.37;100948.56;5017925;28;20029;-87
2021/07/28 00:13:55;;;;;;;4.63;3.97;;;;;;;23.07;56.48;100956.44;5001831;28;20034;-88
2021/07/28 00:16:21;;;;;;;3.97;3.40;;;;;;;23.06;56.63;100952.06;5017804;28;20026;-87
2021/07/28 00:19:01;;;;;;;4.47;3.70;;;;;;;23.06;56.73;100941.56;5017853;28;20025;-88
2021/07/28 00:24:10;;;;;;;4.03;3.63;;;;;;;23.04;56.33;100941.66;5034711;28;20383;-87
2021/07/28 00:26:36;;;;;;;4.95;3.63;;;;;;;23.04;56.85;100936.41;5017690;28;20033;-88
2021/07/28 00:29:01;;;;;;;4.32;3.92;;;;;;;23.05;56.46;100938.09;5032996;28;20027;-88
2021/07/28 00:31:27;;;;;;;5.45;4.13;;;;;;;23.05;56.72;100937.25;5034280;28;20091;-87
2021/07/28 00:33:52;;;;;;;6.22;3.75;;;;;;;23.06;56.50;100938.94;5033944;28;20025;-88
2021/07/28 00:36:17;;;;;;;4.00;3.50;;;;;;;23.05;56.37;100932.84;5017456;28;20444;-87
2021/07/28 00:38:43;;;;;;;4.00;3.60;;;;;;;23.05;56.12;100926.75;5017867;28;20026;-87
2021/07/28 00:41:08;;;;;;;4.72;3.70;;;;;;;23.04;56.43;100928.53;5017637;28;20468;-87
2021/07/28 00:43:35;;;;;;;4.43;3.80;;;;;;;23.04;56.63;100930.25;5017562;28;20033;-88
2021/07/28 00:46:01;;;;;;;5.05;3.70;;;;;;;23.04;56.45;100925.00;5018181;28;20083;-88
2021/07/28 00:48:27;;;;;;;5.57;3.75;;;;;;;23.05;56.41;100918.88;5035913;28;20063;-88
2021/07/28 00:50:55;;;;;;;5.28;3.60;;;;;;;23.03;56.58;100910.19;5018267;28;20116;-88
2021/07/28 00:53:20;;;;;;;4.65;3.85;;;;;;;23.03;56.42;100911.03;5002329;28;20049;-88
2021/07/28 00:55:50;;;;;;;5.90;3.92;;;;;;;23.05;56.36;100914.47;5017360;28;20033;-88
2021/07/28 00:58:17;;;;;;;5.55;3.55;;;;;;;23.03;56.64;100910.19;5017623;28;20025;-88
2021/07/28 01:00:43;;;;;;;3.90;3.47;;;;;;;23.04;56.25;100911.88;5033929;28;20419;-87
2021/07/28 01:03:12;;;;;;;5.70;3.80;;;;;;;23.03;56.39;100918.06;5017565;28;20059;-87
2021/07/28 01:05:37;;;;;;;4.13;3.45;;;;;;;23.04;56.39;100914.50;5050356;28;20466;-88
2021/07/28 01:08:05;;;;;;;4.53;4.10;;;;;;;23.03;56.47;100918.06;5033738;28;20025;-85
2021/07/28 01:10:30;;;;;;;3.60;3.10;;;;;;;23.04;56.22;100917.13;5033177;28;20021;-85
2021/07/28 01:12:56;;;;;;;4.88;3.95;;;;;;;23.03;56.38;100910.19;5016535;28;20048;-85
2021/07/28 01:18:04;;;;;;;4.70;3.63;;;;;;;23.02;55.96;100911.97;5034208;28;20037;-84
2021/07/28 01:20:36;;;;;;;6.03;4.10;;;;;;;23.00;56.33;100900.66;5033043;28;20025;-84
2021/07/28 01:23:10;;;;;;;4.03;3.55;;;;;;;23.02;56.47;100901.47;5032792;28;20380;-85
2021/07/28 01:25:36;;;;;;;4.47;3.72;;;;;;;23.02;56.30;100897.94;5032901;28;20025;-84
2021/07/28 01:28:02;;;;;;;4.63;3.47;;;;;;;23.02;55.97;100897.94;5049394;28;20029;-84
2021/07/28 01:30:29;;;;;;;5.47;3.80;;;;;;;23.01;56.08;100902.34;5032944;28;20025;-84
2021/07/28 01:32:56;;;;;;;5.13;3.97;;;;;;;22.98;56.42;100889.31;5032677;28;20025;-84
2021/07/28 01:35:22;;;;;;;4.43;4.03;;;;;;;22.98;56.02;100890.16;5016396;28;20044;-87
2021/07/28 01:37:48;;;;;;;4.47;3.50;;;;;;;22.99;56.12;100888.38;5032670;28;20063;-88
2021/07/28 01:40:14;;;;;;;3.90;3.53;;;;;;;23.00;56.17;100887.53;5032572;28;20372;-85
2021/07/28 01:42:44;;;;;;;4.43;3.75;;;;;;;22.99;56.13;100885.75;5016224;28;20025;-84
2021/07/28 01:45:13;;;;;;;4.00;3.60;;;;;;;22.98;55.99;100884.91;5032925;28;20475;-84
2021/07/28 01:47:43;;;;;;;3.90;3.50;;;;;;;22.98;56.07;100884.91;5032967;28;20553;-84
2021/07/28 01:50:10;;;;;;;4.25;3.33;;;;;;;22.98;56.24;100884.06;5017777;28;20037;-84
2021/07/28 01:52:40;;;;;;;4.05;3.63;;;;;;;22.98;56.11;100884.91;5035308;28;20026;-84
2021/07/28 01:55:09;;;;;;;4.78;4.05;;;;;;;22.98;56.07;100886.69;5033682;28;20022;-86
2021/07/28 01:57:35;;;;;;;4.90;4.03;;;;;;;22.99;55.91;100876.16;5017062;28;20033;-84
2021/07/28 02:00:00;;;;;;;3.75;3.38;;;;;;;22.98;55.69;100879.66;5017019;28;20551;-84
2021/07/28 02:02:31;;;;;;;4.50;3.63;;;;;;;22.97;55.83;100877.06;5017432;28;20065;-84
2021/07/28 02:04:58;;;;;;;3.80;3.40;;;;;;;22.96;55.98;100889.34;5033671;28;20112;-84
2021/07/28 02:07:23;;;;;;;4.53;3.70;;;;;;;22.97;56.13;100888.44;5016147;28;20447;-84
2021/07/28 02:09:49;;;;;;;4.13;3.72;;;;;;;22.96;55.92;100881.47;5016396;28;20041;-84
2021/07/28 02:12:14;;;;;;;5.50;3.78;;;;;;;22.97;56.20;100887.56;5017011;28;20036;-84
2021/07/28 02:14:40;;;;;;;4.80;3.60;;;;;;;22.96;56.03;100881.47;5033467;28;20507;-84
2021/07/28 02:17:05;;;;;;;4.25;3.85;;;;;;;22.96;55.86;100881.47;5016999;28;20025;-83
2021/07/28 02:19:30;;;;;;;4.88;3.65;;;;;;;22.97;56.00;100874.44;5016130;28;20033;-84
2021/07/28 02:21:56;;;;;;;4.30;3.58;;;;;;;22.96;56.08;100880.63;5000120;28;20032;-84
2021/07/28 02:24:21;;;;;;;4.30;3.67;;;;;;;22.94;56.03;100866.69;5017587;28;20380;-83
2021/07/28 02:26:46;;;;;;;4.35;3.60;;;;;;;22.95;56.17;100871.91;5000662;28;20030;-83
2021/07/28 02:29:12;;;;;;;4.57;3.72;;;;;;;22.95;55.76;100873.63;5016426;28;20052;-84
2021/07/28 02:31:37;;;;;;;4.82;4.20;;;;;;;22.95;55.61;100869.28;5015858;28;20090;-83
2021/07/28 02:34:02;;;;;;;4.25;3.80;;;;;;;22.95;55.86;100871.00;5032013;28;20061;-82
2021/07/28 02:36:28;;;;;;;6.35;4.15;;;;;;;22.95;55.75;100868.38;5032056;28;20438;-81
2021/07/28 02:38:53;;;;;;;4.22;3.60;;;;;;;22.93;55.77;100871.09;5015370;28;20025;-83
2021/07/28 02:41:18;;;;;;;4.25;3.80;;;;;;;22.94;55.73;100866.69;5000336;28;20052;-82
2021/07/28 02:43:44;;;;;;;4.28;3.78;;;;;;;22.94;55.83;100866.69;5017084;28;20028;-83
2021/07/28 02:46:09;;;;;;;5.53;3.90;;;;;;;22.94;55.79;100871.94;5001778;28;20053;-83
2021/07/28 02:48:34;;;;;;;6.05;3.67;;;;;;;22.93;55.46;100872.81;5033827;28;20396;-83
2021/07/28 02:51:00;;;;;;;5.75;4.30;;;;;;;22.93;55.73;100862.31;5016542;28;20119;-84
2021/07/28 02:53:26;;;;;;;5.03;4.10;;;;;;;22.93;55.81;100859.69;5019862;28;20037;-84
2021/07/28 02:55:51;;;;;;;4.90;4.10;;;;;;;22.93;55.71;100859.69;5019711;28;20030;-83
2021/07/28 02:58:20;;;;;;;5.10;4.15;;;;;;;22.92;55.85;100858.84;5035816;28;20036;-83
2021/07/28 03:00:47;;;;;;;5.45;4.03;;;;;;;22.92;55.65;100858.00;5019930;28;20487;-83
2021/07/28 03:03:12;;;;;;;5.32;4.50;;;;;;;22.92;55.80;100856.22;5003450;28;20030;-83
2021/07/28 03:05:37;;;;;;;5.18;4.10;;;;;;;22.91;55.66;100857.16;5019246;28;20027;-84
2021/07/28 03:08:03;;;;;;;5.43;4.30;;;;;;;22.91;55.69;100858.94;5019043;28;20056;-84
2021/07/28 03:10:28;;;;;;;6.72;4.25;;;;;;;22.90;55.89;100857.19;5035634;28;20021;-83
2021/07/28 03:12:54;;;;;;;4.70;4.20;;;;;;;22.90;55.80;100857.19;5019028;28;20121;-84
2021/07/28 03:15:19;;;;;;;6.47;4.22;;;;;;;22.90;56.11;100865.91;5002702;28;20463;-84
2021/07/28 03:17:45;;;;;;;4.68;4.10;;;;;;;22.90;55.69;100865.91;5002474;28;20033;-84
2021/07/28 03:20:10;;;;;;;4.68;4.22;;;;;;;22.91;55.74;100870.28;5018794;28;20049;-84
2021/07/28 03:22:36;;;;;;;5.78;4.40;;;;;;;22.90;55.69;100865.91;5035328;28;20030;-84
2021/07/28 03:25:01;;;;;;;8.00;4.38;;;;;;;22.89;55.83;100861.59;5035272;28;20029;-84
2021/07/28 03:27:27;;;;;;;4.88;4.30;;;;;;;22.90;55.75;100862.44;5002660;28;20026;-84
2021/07/28 03:29:52;;;;;;;6.32;4.53;;;;;;;22.91;55.46;100861.53;5018864;28;20041;-84
2021/07/28 03:32:17;;;;;;;7.72;4.28;;;;;;;22.89;55.91;100858.97;5018572;28;20048;-84
2021/07/28 03:34:43;;;;;;;5.30;4.50;;;;;;;22.90;55.72;100855.41;5002116;28;20041;-84
2021/07/28 03:37:08;;;;;;;4.60;4.03;;;;;;;22.90;55.61;100860.66;5018602;28;20091;-84
2021/07/28 03:39:33;;;;;;;5.18;4.35;;;;;;;22.89;55.76;100864.22;5002379;28;20052;-84
2021/07/28 03:41:59;;;;;;;4.43;4.00;;;;;;;22.90;55.54;100860.66;5018870;28;20029;-83
2021/07/28 03:44:24;;;;;;;6.40;4.28;;;;;;;22.90;55.44;100858.03;5018519;28;20045;-83
2021/07/28 03:46:50;;;;;;;4.40;4.00;;;;;;;22.90;55.75;100857.19;5034712;28;20533;-83
2021/07/28 03:49:15;;;;;;;4.75;4.30;;;;;;;22.90;55.76;100857.19;5018160;28;20041;-83
2021/07/28 03:51:40;;;;;;;5.18;4.28;;;;;;;22.91;55.38;100861.53;5018258;28;20467;-83
2021/07/28 03:54:06;;;;;;;4.50;4.10;;;;;;;22.89;55.55;100858.97;5035892;28;20365;-83
2021/07/28 03:56:31;;;;;;;4.57;4.03;;;;;;;22.89;55.52;100858.97;5018221;28;20049;-84
2021/07/28 03:58:57;;;;;;;4.50;4.10;;;;;;;22.90;55.48;100854.56;5018054;28;20033;-84
2021/07/28 04:01:23;;;;;;;6.55;4.40;;;;;;;22.90;55.40;100851.94;5018000;28;20120;-83
2021/07/28 04:03:52;;;;;;;5.40;4.40;;;;;;;22.89;55.43;100852.88;5034244;28;20033;-83
2021/07/28 04:06:18;;;;;;;4.47;4.03;;;;;;;22.87;55.55;100845.03;5018114;28;20575;-84
2021/07/28 04:08:43;;;;;;;4.63;4.22;;;;;;;22.90;55.38;100844.91;5034866;28;20116;-84
2021/07/28 04:11:08;;;;;;;4.65;4.15;;;;;;;22.89;55.62;100847.63;5034415;28;20413;-83
2021/07/28 04:13:34;;;;;;;4.72;4.22;;;;;;;22.89;55.40;100847.63;5017779;28;20022;-82
2021/07/28 04:15:59;;;;;;;4.97;4.32;;;;;;;22.89;55.68;100845.84;5017873;28;20026;-83
2021/07/28 04:18:25;;;;;;;5.95;4.35;;;;;;;22.90;55.75;100847.53;5001474;28;20400;-82
2021/07/28 04:20:50;;;;;;;5.60;4.40;;;;;;;22.89;55.68;100843.22;5017792;28;20057;-83
2021/07/28 04:23:15;;;;;;;5.93;4.03;;;;;;;22.90;55.37;100833.56;5001616;28;20029;-83
2021/07/28 04:25:41;;;;;;;5.35;4.70;;;;;;;22.90;55.71;100839.66;5017771;28;20026;-84
2021/07/28 04:28:06;;;;;;;4.38;3.97;;;;;;;22.89;55.26;100832.72;5001283;28;20052;-83
2021/07/28 04:30:32;;;;;;;4.95;4.45;;;;;;;22.89;55.68;100829.25;5018011;28;20407;-83
2021/07/28 04:32:57;;;;;;;7.25;4.00;;;;;;;22.91;55.61;100830.06;5002458;28;20033;-84
2021/07/28 04:35:22;;;;;;;4.60;4.20;;;;;;;22.92;55.27;100835.25;5018289;28;20113;-85
2021/07/28 04:37:48;;;;;;;5.13;4.10;;;;;;;22.92;55.60;100835.25;5001476;28;20498;-83
2021/07/28 04:40:14;;;;;;;4.78;4.28;;;;;;;22.92;55.51;100840.47;5017538;28;20056;-83
2021/07/28 04:42:39;;;;;;;5.30;4.50;;;;;;;22.92;55.43;100837.00;5001279;28;20029;-83
2021/07/28 04:45:06;;;;;;;7.28;4.55;;;;;;;22.92;55.24;100837.00;5001016;28;20025;-83
2021/07/28 04:47:31;;;;;;;4.35;3.95;;;;;;;22.91;55.10;100836.16;5017106;28;20053;-83
2021/07/28 04:49:57;;;;;;;4.97;4.32;;;;;;;22.91;55.63;100838.78;5017186;28;20029;-83
2021/07/28 04:52:25;;;;;;;5.00;4.10;;;;;;;22.92;55.42;100837.00;5000916;28;20494;-83
2021/07/28 04:54:53;;;;;;;4.47;4.07;;;;;;;22.91;55.64;100841.41;5017474;28;20049;-83
2021/07/28 04:57:19;;;;;;;4.55;3.90;;;;;;;22.92;55.35;100834.38;5033228;28;20049;-83
2021/07/28 04:59:45;;;;;;;4.60;4.20;;;;;;;22.93;55.38;100839.59;5033431;28;20055;-83
2021/07/28 05:02:10;;;;;;;4.90;4.43;;;;;;;22.93;55.40;100836.09;5033518;28;20083;-83
2021/07/28 05:04:36;;;;;;;5.18;4.68;;;;;;;22.95;55.48;100832.53;5000680;28;20021;-83
2021/07/28 05:07:02;;;;;;;6.97;4.45;;;;;;;22.95;55.48;100829.03;5017043;28;20091;-84
2021/07/28 05:09:27;;;;;;;5.65;5.13;;;;;;;22.95;54.99;100829.91;5016907;28;20391;-83
2021/07/28 05:11:53;;;;;;;6.32;4.97;;;;;;;22.98;55.53;100831.56;5000353;28;20025;-84
2021/07/28 05:14:18;;;;;;;5.40;4.43;;;;;;;22.97;55.18;100827.22;5033417;28;20072;-84
2021/07/28 05:16:43;;;;;;;6.70;4.75;;;;;;;22.98;55.41;100827.16;5016611;28;20067;-84
2021/07/28 05:19:09;;;;;;;6.57;5.32;;;;;;;23.02;55.20;100824.47;5033367;28;20037;-85
2021/07/28 05:21:34;;;;;;;7.15;4.90;;;;;;;23.00;55.20;100835.03;5033111;28;20021;-86
2021/07/28 05:24:00;;;;;;;6.80;5.40;;;;;;;23.01;55.00;100831.50;5016527;28;20056;-87
2021/07/28 05:26:25;;;;;;;5.72;5.20;;;;;;;23.00;55.11;100833.25;5016503;28;20399;-86
2021/07/28 05:28:50;;;;;;;6.85;6.15;;;;;;;23.04;55.05;100830.53;5000039;28;20390;-87
2021/07/28 05:31:16;;;;;;;8.00;6.97;;;;;;;23.06;55.16;100829.59;5000125;28;20029;-86
2021/07/28 05:33:42;;;;;;;9.23;7.20;;;;;;;23.06;55.02;100828.72;5016621;28;20425;-85
2021/07/28 05:36:08;;;;;;;8.18;7.38;;;;;;;23.04;55.04;100828.78;5016258;28;20112;-86
2021/07/28 05:38:34;;;;;;;10.32;8.13;;;;;;;23.04;55.23;100827.91;5032788;28;20430;-86
2021/07/28 05:41:02;;;;;;;10.07;7.80;;;;;;;23.10;54.83;100823.31;4999889;28;20030;-87
2021/07/28 05:43:27;;;;;;;9.38;8.00;;;;;;;23.08;54.71;100832.16;5049299;28;20025;-86
2021/07/28 05:45:53;;;;;;;11.95;9.02;;;;;;;23.06;54.55;100828.72;4999838;28;20036;-86
2021/07/28 05:48:18;;;;;;;10.75;8.38;;;;;;;23.04;54.66;100831.41;5016026;28;20120;-86
2021/07/28 05:50:44;;;;;;;10.95;8.45;;;;;;;23.04;54.67;100833.16;5016200;28;20035;-85
2021/07/28 05:53:09;;;;;;;10.00;8.77;;;;;;;23.03;54.36;100828.81;5016019;28;20060;-87
2021/07/28 05:55:35;;;;;;;9.35;8.38;;;;;;;23.04;54.34;100830.53;5049528;28;20070;-86
2021/07/28 05:58:01;;;;;;;9.45;8.00;;;;;;;23.07;54.11;100828.66;4999780;28;20064;-85
2021/07/28 06:00:26;;;;;;;10.65;8.35;;;;;;;23.09;54.23;100826.84;4999873;28;20029;-88
2021/07/28 06:02:52;;;;;;;11.75;8.10;;;;;;;23.10;54.07;100833.81;5015943;28;20026;-86
2021/07/28 06:05:17;;;;;;;12.13;8.40;;;;;;;23.06;54.46;100840.09;5016001;28;20021;-83
2021/07/28 06:07:43;;;;;;;10.30;8.30;;;;;;;23.06;54.66;100834.84;5032433;28;20022;-90
2021/07/28 06:10:09;;;;;;;12.82;8.25;;;;;;;23.07;54.95;100826.03;5016473;28;20032;-89
2021/07/28 06:12:35;;;;;;;12.32;8.43;;;;;;;23.05;54.84;100830.50;5015864;28;20033;-87
2021/07/28 06:15:00;;;;;;;10.65;8.15;;;;;;;23.04;54.75;100822.66;5033044;28;20083;-89
2021/07/28 06:17:26;;;;;;;11.00;7.90;;;;;;;23.02;54.84;100821.84;4999435;28;20036;-90
2021/07/28 06:19:51;;;;;;;9.40;7.18;;;;;;;22.98;54.76;100819.31;4999787;28;20029;-88
2021/07/28 06:22:16;;;;;;;12.35;7.13;;;;;;;22.98;54.50;100816.69;5016261;28;20072;-90
2021/07/28 06:24:42;;;;;;;9.15;7.40;;;;;;;23.03;54.43;100826.19;4999821;28;20087;-88
2021/07/28 06:27:07;;;;;;;12.85;6.97;;;;;;;23.02;54.31;100825.34;5020141;28;20056;-88
2021/07/28 06:29:36;;;;;;;7.35;6.30;;;;;;;23.04;54.43;100820.03;5021582;28;20075;-89
2021/07/28 06:32:01;;;;;;;9.10;6.00;;;;;;;23.05;54.18;100824.38;5038095;28;20025;-88
2021/07/28 06:34:27;;;;;;;7.78;5.82;;;;;;;23.01;54.35;100826.25;5039382;28;20075;-87
2021/07/28 06:36:52;;;;;;;9.68;5.65;;;;;;;23.02;54.10;100830.59;5023807;28;20030;-87
2021/07/28 06:39:18;;;;;;;10.20;5.40;;;;;;;23.06;54.26;100821.72;5023584;28;20040;-87
2021/07/28 06:41:43;;;;;;;8.75;5.00;;;;;;;23.01;53.88;100823.63;5008336;28;20036;-88
2021/07/28 06:44:08;;;;;;;8.27;4.97;;;;;;;22.99;54.29;100825.41;5026462;28;20476;-89
2021/07/28 06:46:37;;;;;;;7.40;4.70;;;;;;;22.96;54.40;100836.84;5028546;28;20068;-87
2021/07/28 06:49:02;;;;;;;7.65;5.07;;;;;;;22.95;53.84;100831.66;5029436;28;20061;-89
2021/07/28 06:51:31;;;;;;;9.35;5.00;;;;;;;22.94;53.67;100833.41;5057804;28;20033;-85
2021/07/28 06:53:57;;;;;;;10.07;5.40;;;;;;;22.93;53.64;100834.34;5038407;28;20113;-88
2021/07/28 06:56:22;;;;;;;9.82;5.28;;;;;;;22.93;53.92;100829.09;5042364;28;20057;-88
2021/07/28 06:58:47;;;;;;;7.00;4.95;;;;;;;22.92;53.53;100829.13;5059929;28;20041;-88
2021/07/28 07:01:13;;;;;;;7.20;4.65;;;;;;;22.89;53.57;100824.84;5010230;28;20452;-89
2021/07/28 07:03:38;;;;;;;8.43;5.07;;;;;;;22.89;53.79;100837.97;5038033;28;20479;-87
2021/07/28 07:06:04;;;;;;;10.85;5.07;;;;;;;22.88;53.62;100831.00;5021276;28;20039;-85
2021/07/28 07:08:30;;;;;;;9.20;5.35;;;;;;;22.89;53.78;100827.47;5023119;28;20471;-87
2021/07/28 07:10:55;;;;;;;8.65;4.85;;;;;;;22.86;53.46;100827.56;5007721;28;20033;-86
2021/07/28 07:13:24;;;;;;;10.52;5.32;;;;;;;22.85;53.76;100823.22;5042685;28;20555;-89
2021/07/28 07:15:52;;;;;;;7.35;5.25;;;;;;;22.82;53.55;100817.22;5039949;28;20029;-86
2021/07/28 07:18:21;;;;;;;7.85;5.55;;;;;;;22.83;53.55;100822.41;5040678;28;20044;-85
2021/07/28 07:20:49;;;;;;;11.88;5.80;;;;;;;22.82;53.40;100817.22;5041088;28;20099;-86
2021/07/28 07:23:15;;;;;;;7.70;5.40;;;;;;;22.84;53.33;100818.88;5039433;28;20022;-86
2021/07/28 07:25:41;;;;;;;9.93;5.35;;;;;;;22.86;53.35;100818.84;5039659;28;20040;-85
2021/07/28 07:28:07;;;;;;;8.25;5.43;;;;;;;22.89;53.49;100821.38;5038200;28;20029;-82
2021/07/28 07:30:34;;;;;;;11.40;5.47;;;;;;;22.88;53.22;100822.28;5035561;28;20108;-85
2021/07/28 07:35:46;;;;;;;10.90;5.25;;;;;;;22.88;53.91;100822.28;5038626;28;20086;-84
2021/07/28 07:38:22;;;;;;;8.93;5.30;;;;;;;22.88;53.62;100817.88;5019166;28;20487;-86
2021/07/28 07:40:56;;;;;;;7.88;5.13;;;;;;;22.88;53.79;100817.03;5020412;28;20495;-85
2021/07/28 07:43:25;;;;;;;9.40;5.15;;;;;;;22.88;53.81;100824.91;5020135;28;20116;-85
2021/07/28 07:45:55;;;;;;;8.35;5.15;;;;;;;22.85;53.90;100825.00;5004614;28;20029;-86
2021/07/28 07:48:24;;;;;;;9.80;5.00;;;;;;;22.82;53.76;100815.47;5038432;28;20211;-86
2021/07/28 07:50:50;;;;;;;9.05;5.53;;;;;;;22.77;53.52;100815.59;5019333;28;20099;-85
2021/07/28 07:53:16;;;;;;;12.30;5.70;;;;;;;22.84;53.71;100816.25;5040056;28;20021;-85
2021/07/28 07:55:41;;;;;;;11.57;5.53;;;;;;;22.83;53.53;100822.41;5024777;28;20032;-85
2021/07/28 07:58:25;;;;;;;11.55;5.38;;;;;;;22.80;53.73;100818.13;5027314;28;20037;-85
2021/07/28 08:00:55;;;;;;;10.25;5.38;;;;;;;22.83;53.76;100817.16;5028976;28;20476;-85
2021/07/28 08:03:20;;;;;;;12.50;5.40;;;;;;;22.82;53.71;100817.22;5023466;28;20039;-82
2021/07/28 08:05:46;;;;;;;9.80;5.13;;;;;;;22.86;53.68;100824.06;5052246;28;20033;-88
2021/07/28 08:08:11;;;;;;;8.20;5.00;;;;;;;22.91;53.60;100824.81;5045470;28;20561;-85
2021/07/28 08:10:36;;;;;;;12.60;5.25;;;;;;;22.93;53.47;100818.59;5003853;28;20030;-86
2021/07/28 08:13:02;;;;;;;8.02;4.70;;;;;;;22.96;53.70;100813.25;5002842;28;20029;-85
2021/07/28 08:15:28;;;;;;;12.77;5.40;;;;;;;22.98;53.43;100821.06;5034963;28;20038;-85
2021/07/28 08:17:53;;;;;;;9.80;5.10;;;;;;;22.99;53.41;100821.03;5001953;28;20028;-86
2021/07/28 08:20:18;;;;;;;10.13;4.95;;;;;;;23.00;53.31;100816.66;5001696;28;20506;-86
2021/07/28 08:22:44;;;;;;;8.30;4.90;;;;;;;23.02;53.41;100816.59;5050936;28;20056;-86
2021/07/28 08:25:09;;;;;;;9.30;5.00;;;;;;;23.03;53.40;100810.47;5001836;28;20029;-84
2021/07/28 08:27:35;;;;;;;8.35;4.70;;;;;;;23.02;53.42;100817.47;5017661;28;20025;-84
2021/07/28 08:30:00;;;;;;;6.72;4.70;;;;;;;23.03;53.26;100824.44;5017585;28;20361;-84
2021/07/28 08:32:26;;;;;;;8.70;4.80;;;;;;;23.02;53.24;100825.34;5034089;28;20029;-84
2021/07/28 08:34:51;;;;;;;5.50;4.85;;;;;;;23.04;53.14;100822.66;5017411;28;20423;-83
2021/07/28 08:37:18;;;;;;;6.78;4.70;;;;;;;23.05;53.00;100816.50;5033827;28;20053;-85
2021/07/28 08:39:43;;;;;;;9.52;4.90;;;;;;;23.06;53.17;100815.59;5017668;28;20029;-84
2021/07/28 08:42:10;;;;;;;10.85;4.93;;;;;;;23.07;53.08;100815.53;5001052;28;20064;-85
2021/07/28 08:44:38;;;;;;;6.55;4.55;;;;;;;23.07;53.23;100823.41;5033964;28;20104;-84
2021/07/28 08:47:04;;;;;;;7.05;5.00;;;;;;;23.07;53.22;100826.03;5033659;28;20045;-84
2021/07/28 08:49:31;;;;;;;8.95;4.85;;;;;;;23.07;53.27;100825.19;5033988;28;20095;-84
2021/07/28 08:51:57;;;;;;;6.80;4.50;;;;;;;23.08;53.40;100830.41;5033731;28;20027;-84
2021/07/28 08:54:22;;;;;;;6.80;5.03;;;;;;;23.08;53.41;100827.78;5033935;28;20030;-84
2021/07/28 08:56:48;;;;;;;8.18;4.78;;;;;;;23.07;53.43;100826.03;5000709;28;20059;-85
2021/07/28 08:59:30;;;;;;;6.18;4.50;;;;;;;23.06;53.56;100821.72;5000837;28;20480;-84
2021/07/28 09:01:56;;;;;;;7.97;4.65;;;;;;;23.06;53.54;100831.34;5033514;28;20044;-85
2021/07/28 09:04:23;;;;;;;6.57;3.78;;;;;;;23.05;53.77;100825.25;5016791;28;20468;-86
2021/07/28 09:06:49;;;;;;;6.90;4.03;;;;;;;23.09;54.06;100812.88;5017213;28;20110;-89
2021/07/28 09:09:14;;;;;;;7.95;4.35;;;;;;;23.11;53.92;100808.44;5034600;28;20092;-82
2021/07/28 09:11:57;;;;;;;8.30;4.05;;;;;;;23.10;53.83;100823.31;5000490;28;20036;-85
2021/07/28 09:14:27;;;;;;;6.15;4.65;;;;;;;23.08;53.84;100808.53;5033022;28;20030;-85
2021/07/28 09:16:53;;;;;;;6.57;4.63;;;;;;;23.06;54.05;100805.09;5033321;28;20072;-85
2021/07/28 09:19:41;;;;;;;5.50;4.60;;;;;;;23.07;53.99;100802.44;5016604;28;20116;-85
2021/07/28 09:22:08;;;;;;;6.00;4.53;;;;;;;23.08;54.00;100805.91;5033069;28;20108;-85
2021/07/28 09:24:33;;;;;;;6.70;4.63;;;;;;;23.09;53.97;100808.47;5016787;28;20032;-85
2021/07/28 09:26:59;;;;;;;6.20;4.95;;;;;;;23.10;53.75;100815.44;5033095;28;20029;-85
2021/07/28 09:29:26;;;;;;;5.35;4.50;;;;;;;23.11;54.20;100811.06;5016625;28;20029;-85
2021/07/28 09:32:12;;;;;;;7.90;5.20;;;;;;;23.11;53.86;100811.06;5000411;28;20029;-85
2021/07/28 09:34:39;;;;;;;5.32;4.80;;;;;;;23.12;54.17;100811.00;5032633;28;20403;-85
2021/07/28 09:37:07;;;;;;;5.30;4.57;;;;;;;23.13;54.03;100804.00;5032850;28;20033;-85
2021/07/28 09:39:38;;;;;;;6.10;5.32;;;;;;;23.14;54.03;100816.19;5033983;28;20079;-85
2021/07/28 09:42:14;;;;;;;5.85;5.22;;;;;;;23.14;54.03;100814.44;5034114;28;20036;-85
2021/07/28 09:44:43;;;;;;;5.90;5.05;;;;;;;23.13;53.94;100809.25;5032840;28;20018;-85
2021/07/28 09:47:13;;;;;;;6.28;5.28;;;;;;;23.14;53.90;100809.19;5032428;28;20057;-85
2021/07/28 09:49:42;;;;;;;7.10;4.93;;;;;;;23.13;54.20;100806.63;5032571;28;20053;-85
2021/07/28 09:52:19;;;;;;;6.32;4.93;;;;;;;23.15;54.09;100807.44;5032647;28;20120;-85
2021/07/28 09:54:45;;;;;;;6.47;5.55;;;;;;;23.14;54.03;100806.56;5032777;28;20017;-85
2021/07/28 09:57:15;;;;;;;5.93;5.05;;;;;;;23.16;54.05;100803.88;4999995;28;20037;-85
2021/07/28 09:59:45;;;;;;;5.75;5.15;;;;;;;23.16;54.38;100806.50;5032850;28;20029;-85
2021/07/28 10:02:14;;;;;;;6.18;5.55;;;;;;;23.16;54.17;100804.72;5032350;28;20053;-85
2021/07/28 10:04:46;;;;;;;5.80;5.13;;;;;;;23.17;54.04;100805.63;5032625;28;20119;-86
2021/07/28 10:07:14;;;;;;;5.50;4.90;;;;;;;23.17;54.25;100806.47;5032508;28;20029;-86
2021/07/28 10:09:45;;;;;;;5.80;5.20;;;;;;;23.18;54.27;100802.91;5032540;28;20033;-84
2021/07/28 10:12:12;;;;;;;6.43;5.05;;;;;;;23.22;53.96;100808.94;5032383;28;20083;-85
2021/07/28 10:14:40;;;;;;;5.80;5.25;;;;;;;23.27;53.66;100801.75;5032322;28;20028;-84
2021/07/28 10:17:06;;;;;;;5.82;4.55;;;;;;;23.28;54.30;100797.34;5033655;28;20029;-85
2021/07/28 10:19:32;;;;;;;4.75;4.20;;;;;;;23.26;54.23;100797.44;5015924;28;20116;-84
2021/07/28 10:22:00;;;;;;;4.35;3.95;;;;;;;23.28;53.86;100806.09;4999384;28;20124;-84
2021/07/28 10:24:25;;;;;;;5.07;4.53;;;;;;;23.29;54.09;100802.56;5016365;28;20022;-84
2021/07/28 10:26:53;;;;;;;4.75;4.32;;;;;;;23.29;54.06;100799.94;5000121;28;20048;-83
2021/07/28 10:29:19;;;;;;;4.80;3.97;;;;;;;23.28;53.80;100799.97;5032526;28;20037;-84
2021/07/28 10:31:49;;;;;;;4.75;4.25;;;;;;;23.30;54.32;100801.66;4999997;28;20029;-86
2021/07/28 10:34:27;;;;;;;7.45;5.38;;;;;;;23.32;54.77;100806.84;5032221;28;20029;-86
2021/07/28 10:36:55;;;;;;;8.65;5.70;;;;;;;23.31;54.96;100802.53;5032289;28;20479;-85
2021/07/28 10:39:44;;;;;;;6.65;5.75;;;;;;;23.31;54.58;100799.88;5033345;28;20029;-84
2021/07/28 10:42:36;;;;;;;5.90;4.82;;;;;;;23.30;54.83;100804.28;5032218;28;20017;-85
2021/07/28 10:45:07;;;;;;;7.22;5.03;;;;;;;23.31;54.78;100805.13;5024414;28;20072;-84
2021/07/28 10:47:36;;;;;;;7.93;5.53;;;;;;;23.29;55.03;100805.19;5015399;28;20061;-85
2021/07/28 10:50:04;;;;;;;6.30;4.80;;;;;;;23.32;54.76;100809.47;5033411;28;20428;-88
2021/07/28 10:52:42;;;;;;;4.93;4.40;;;;;;;23.34;54.34;100807.66;5031941;28;20021;-87
2021/07/28 10:55:12;;;;;;;7.22;4.15;;;;;;;23.34;54.41;100807.66;5031982;28;20025;-88
2021/07/28 10:57:46;;;;;;;5.03;4.53;;;;;;;23.32;54.71;100814.72;5015629;28;20025;-87
2021/07/28 11:00:33;;;;;;;5.07;4.35;;;;;;;23.30;54.59;100827.03;5032137;28;20079;-87
2021/07/28 11:02:58;;;;;;;6.97;5.05;;;;;;;23.31;54.78;100815.66;5031945;28;20391;-85
2021/07/28 11:05:28;;;;;;;6.63;5.00;;;;;;;23.31;54.67;100819.13;5033566;28;20036;-86
2021/07/28 11:08:05;;;;;;;7.82;4.57;;;;;;;23.32;54.79;100827.84;5036191;28;20033;-86
2021/07/28 11:10:35;;;;;;;5.13;4.20;;;;;;;23.36;54.82;100817.19;5034342;28;20065;-88
2021/07/28 11:13:31;;;;;;;6.00;4.32;;;;;;;23.35;54.44;100836.50;5040345;28;20026;-91
2021/07/28 11:16:01;;;;;;;6.88;4.68;;;;;;;23.35;54.75;100840.91;5036503;28;20048;-90
2021/07/28 11:18:49;;;;;;;6.63;4.13;;;;;;;23.34;54.53;100840.03;5042529;28;20036;-85
2021/07/28 11:21:16;;;;;;;5.35;4.25;;;;;;;23.32;54.85;100840.97;5024490;28;20056;-84
2021/07/28 11:23:47;;;;;;;6.13;4.35;;;;;;;23.30;55.07;100842.78;5042218;28;20033;-85
2021/07/28 11:26:24;;;;;;;5.05;4.00;;;;;;;23.30;55.02;100841.06;5045775;28;20032;-88
2021/07/28 11:28:52;;;;;;;6.68;4.00;;;;;;;23.28;55.30;100837.63;5046284;28;20044;-86
2021/07/28 11:31:32;;;;;;;7.03;4.25;;;;;;;23.28;55.30;100835.00;5044200;28;20048;-87
2021/07/28 11:34:22;;;;;;;8.57;4.57;;;;;;;23.29;55.35;100843.72;5043483;28;20363;-85